Terminal Aerodrome Forecast
Issued by NWS Wakefield, VA

Home | Current Version | Previous Version | Text Only | Print | Product List | Glossary On
Versions: 1 2 3 4 5 6 7 8 9 10 11 12 13 14 15 16 17 18 19 20 21 22 23 24 25 26 27 28 29 30 31 32 33
000
FTUS41 KAKQ 250555 CCA
TAFSBY
TAF COR
KSBY 250555Z 2506/2606 09005KT 1SM BR VCSH OVC004
     FM250700 11005KT 1/2SM FG OVC002
      TEMPO 2510/2512 1/4SM FG VV001
     FM251200 19007KT 2SM BR OVC005 WS020/23040KT
     FM251500 22012KT P6SM VCSH OVC015
     FM251800 23013G21KT P6SM BKN040
     FM252300 26007KT P6SM BKN150=

USA.gov is the U.S. government's official web portal to all federal, state and local government web resources and services.